• Join FlightAware (Why Join?)
  • Login
  • US Flag 
01:50AM EST


 

Airport Tracker/Info


-or-


 

Live Flight TrackerFlight Track Log ✈ UAL1197 ✈ 14-Jun-2013 ✈ KSFO - KIAH

Flight Track Log - Related Links

Times and Time Zones

All times are in EDT time to prevent confusion due to time zone crossing. See the UAL1197 flight status page for this flight to view local times or setup timezone preferences in your user account.

Time Position Orientation Groundspeed Altitude Reporting Facility
EDT Latitude Longitude Course Direction KTS MPH feet Rate Location/Type
03:57AM 37.6200 -122.3860 107° East 13 15  Level FlightAware
04:02AM 37.6200 -122.3830 90° East 34 39 60 Level FlightAware
04:02AM 37.6180 -122.3800 130° Southeast 20 23 120 Level FlightAware
04:03AM 37.6130 -122.3820 198° South 20 23 120 Level FlightAware
04:04AM 37.6100 -122.3840 208° Southwest 18 21 180 Level FlightAware
04:05AM 37.6070 -122.3840 180° South 16 18 240 Level FlightAware
04:05AM 37.6070 -122.3830 90° East 16 18 300 Level FlightAware
04:05AM 37.6060 -122.3830 180° South 16 18 360 Level FlightAware
04:06AM 37.6070 -122.3800 67° East 16 18 360 Level FlightAware
04:06AM 37.6180 -122.3740 23° Northeast 140 161 660 Level FlightAware
04:06AM 37.6355 -122.3610 30° Northeast 181 208 600 1,800 Climbing FlightAware ADS-B
04:07AM 37.6399 -122.3570 36° Northeast 182 209 900 3,000 Climbing FlightAware ADS-B
04:07AM 37.6423 -122.3540 45° Northeast 180 207 1,100 2,640 Climbing FlightAware ADS-B
04:07AM 37.6446 -122.3500 54° Northeast 183 211 1,300 1,980 Climbing FlightAware ADS-B
04:07AM 37.6461 -122.3460 65° Northeast 186 214 1,400 1,500 Climbing FlightAware ADS-B
04:07AM 37.6494 -122.3380 62° Northeast 200 230 1,600 1,260 Climbing FlightAware ADS-B
04:07AM 37.6515 -122.3310 69° East 207 238 1,700 1,320 Climbing FlightAware ADS-B
04:07AM 37.6573 -122.3120 69° East 224 258 2,100 1,800 Climbing FlightAware ADS-B
04:07AM 37.6584 -122.3070 74° East 227 261 2,300 3,000 Climbing FlightAware ADS-B
04:07AM 37.6590 -122.3020 81° East 229 264 2,500 3,000 Climbing FlightAware ADS-B
04:07AM 37.6591 -122.2960 89° East 232 267 2,700 2,520 Climbing FlightAware ADS-B
04:07AM 37.6588 -122.2920 95° East 234 269 2,800 2,640 Climbing FlightAware ADS-B
04:08AM 37.6573 -122.2840 103° East 237 273 3,100 2,580 Climbing FlightAware ADS-B
04:08AM 37.6543 -122.2710 106° East 241 277 3,500 2,160 Climbing FlightAware ADS-B
04:08AM 37.6491 -122.2500 107° East 257 296 4,000 2,400 Climbing FlightAware ADS-B
04:08AM 37.6437 -122.2280 107° East 264 304 4,700 3,000 Climbing FlightAware ADS-B
04:08AM 37.6379 -122.2060 108° East 263 303 5,500 2,700 Climbing FlightAware ADS-B
04:09AM 37.6319 -122.1830 108° East 272 313 6,100 2,280 Climbing FlightAware ADS-B
04:09AM 37.6297 -122.1750 109° East 275 316 6,300 1,980 Climbing FlightAware ADS-B
04:09AM 37.6285 -122.1680 102° East 277 319 6,400 1,680 Climbing FlightAware ADS-B
04:09AM 37.6280 -122.1640 99° East 279 321 6,500 1,680 Climbing FlightAware ADS-B
04:09AM 37.6278 -122.1570 92° East 282 325 6,600 2,100 Climbing FlightAware ADS-B
04:09AM 37.6300 -122.1410 80° East 286 329 7,000 2,520 Climbing FlightAware ADS-B
04:09AM 37.6319 -122.1340 71° East 286 329 7,200 2,700 Climbing FlightAware ADS-B
04:10AM 37.6400 -122.1100 67° East 288 331 7,900 2,760 Climbing FlightAware ADS-B
04:10AM 37.6456 -122.0950 65° Northeast 289 333 8,400 2,640 Climbing FlightAware ADS-B
04:10AM 37.6545 -122.0710 65° Northeast 293 337 9,000 2,640 Climbing FlightAware ADS-B
04:10AM 37.6631 -122.0490 64° Northeast 294 338 9,700 2,100 Climbing FlightAware ADS-B
04:11AM 37.6792 -122.0110 62° Northeast 313 360 10,400 1,560 Climbing FlightAware ADS-B
04:11AM 37.7007 -121.9570 63° Northeast 336 387 11,200 1,560 Climbing FlightAware ADS-B
04:12AM 37.7259 -121.8920 64° Northeast 356 410 12,200 1,560 Climbing FlightAware ADS-B
04:12AM 37.7470 -121.8380 64° Northeast 384 442 12,900 1,620 Climbing FlightAware ADS-B
04:13AM 37.7785 -121.7610 63° Northeast 402 463 14,000 2,040 Climbing FlightAware ADS-B
04:13AM 37.8060 -121.6920 63° Northeast 406 467 15,300 2,340 Climbing FlightAware ADS-B
04:14AM 37.8332 -121.6230 63° Northeast 412 474 16,500 1,980 Climbing FlightAware ADS-B
04:14AM 37.8611 -121.5520 64° Northeast 422 486 17,500 1,860 Climbing FlightAware ADS-B
04:15AM 37.8880 -121.4830 64° Northeast 429 494 18,500 1,800 Climbing FlightAware ADS-B
04:15AM 37.9156 -121.4130 63° Northeast 438 504 19,400 1,620 Climbing FlightAware ADS-B
04:16AM 37.9580 -121.3020 64° Northeast 450 518 20,700 1,620 Climbing FlightAware
04:17AM 37.9830 -121.1850 75° East 459 528 22,000 1,620 Climbing FlightAware
04:17AM 37.9950 -121.1110 78° East 464 534 22,700 1,440 Climbing FlightAware
04:18AM 38.0120 -120.9960 79° East 474 545 23,700 1,380 Climbing FlightAware
04:19AM 38.0300 -120.8820 79° East 483 556 24,600 1,200 Climbing FlightAware
04:20AM 38.0470 -120.7690 79° East 491 565 25,400 1,200 Climbing FlightAware
04:20AM 38.0670 -120.6400 79° East 496 571 26,400 1,380 Climbing FlightAware
04:21AM 38.0840 -120.5210 80° East 500 575 27,300 1,140 Climbing FlightAware
04:21AM 38.0970 -120.4360 79° East 504 580 27,800 1,020 Climbing FlightAware
04:22AM 38.1150 -120.3150 79° East 509 586 28,500 1,080 Climbing FlightAware
04:23AM 38.1280 -120.2250 80° East 510 587 29,100 1,200 Climbing FlightAware
04:24AM 38.1530 -120.0580 79° East 510 587 30,300 1,200 Climbing FlightAware
04:24AM 38.1680 -119.9530 80° East 511 588 31,000 1,020 Climbing FlightAware
04:25AM 38.1870 -119.8210 80° East 511 588 31,700 960 Climbing FlightAware
04:26AM 38.2010 -119.7220 80° East 510 587 32,300 720 Climbing FlightAware
04:27AM 38.2250 -119.5550 80° East 510 587 32,900 360 Climbing FlightAware
04:27AM 38.2350 -119.4950 78° East 510 587 32,900 1,380 Level FlightAware
04:28AM 38.2560 -119.3330 81° East 505 581 34,500 1,440 Climbing FlightAware
04:28AM 38.2720 -119.2160 80° East 505 581 35,000 360 Climbing FlightAware
04:29AM 38.2810 -119.1020 84° East 505 581 35,000  Level FlightAware
04:30AM 38.2870 -119.0070 85° East 505 581 35,000  Level FlightAware
04:30AM 38.2960 -118.8830 85° East 505 581 35,000  Level FlightAware
04:31AM 38.3020 -118.7920 85° East 505 581 35,000  Level FlightAware
04:31AM 38.2850 -119.0340 265° West 35,000  Level FlightAware
04:32AM 38.3117 -118.5564 265° West 509 586 35,000  Level Salt Lake Center
04:33AM 38.3164 -118.4842 85° East 512 589 35,000  Level Oakland Center
04:34AM 38.3264 -118.3042 86° East 512 589 35,000  Level Oakland Center
04:35AM 38.3358 -118.1231 86° East 513 590 35,000  Level Oakland Center
04:36AM 38.3444 -117.9683 86° East 515 593 35,000  Level Oakland Center
04:37AM 38.3533 -117.7856 86° East 515 593 35,000  Level Oakland Center
04:38AM 38.3619 -117.6039 86° East 514 592 35,000  Level Oakland Center
04:39AM 38.3706 -117.4228 86° East 509 586 35,000  Level Oakland Center
04:39AM 38.3778 -117.2761 86° East 509 586 35,000  Level Salt Lake Center
04:40AM 38.3850 -117.0942 87° East 507 583 35,000  Level Salt Lake Center
04:41AM 38.3875 -117.0575 85° East 507 583 35,000  Level Oakland Center
04:42AM 38.3958 -116.8761 87° East 508 585 35,000  Level Oakland Center
04:42AM 38.4006 -116.7322 88° East 505 581 35,000  Level Salt Lake Center
04:43AM 38.4078 -116.5525 87° East 507 583 35,000  Level Salt Lake Center
04:44AM 38.4147 -116.3725 87° East 507 583 35,000  Level Salt Lake Center
04:45AM 38.4158 -116.3364 88° East 507 583 35,000  Level Oakland Center
04:46AM 38.4178 -116.1556 89° East 511 588 35,000  Level Oakland Center
04:46AM 38.4047 -116.0142 97° East 504 580 35,000  Level Salt Lake Center
04:47AM 38.3889 -115.8358 96° East 506 582 35,000  Level Salt Lake Center
04:48AM 38.3722 -115.6581 97° East 505 581 35,000  Level Salt Lake Center
04:49AM 38.3553 -115.4806 97° East 505 581 35,000  Level Salt Lake Center
04:50AM 38.3422 -115.3244 96° East 509 586 35,000  Level Salt Lake Center
04:51AM 38.3256 -115.1475 97° East 507 583 35,000  Level Salt Lake Center
04:52AM 38.3072 -114.9689 97° East 508 585 35,000  Level Salt Lake Center
04:53AM 38.2908 -114.7911 97° East 507 583 35,000  Level Salt Lake Center
04:54AM 38.2714 -114.6122 98° East 510 587 35,000  Level Salt Lake Center
04:55AM 38.2542 -114.4331 97° East 511 588 35,000  Level Salt Lake Center
04:56AM 38.2203 -114.2622 104° East 502 578 35,000  Level Salt Lake Center
04:57AM 38.1775 -114.0956 108° East 498 573 35,000  Level Salt Lake Center
04:58AM 38.1408 -113.9250 105° East 499 574 35,000  Level Salt Lake Center
04:59AM 38.0989 -113.7567 108° East 499 574 35,000  Level Salt Lake Center
05:00AM 38.0586 -113.5900 107° East 497 572 35,000  Level Salt Lake Center
05:01AM 38.0192 -113.4239 107° East 494 568 35,000  Level Salt Lake Center
05:02AM 37.9792 -113.2581 107° East 492 566 35,000  Level Salt Lake Center
05:03AM 37.9381 -113.0919 107° East 493 567 35,000  Level Salt Lake Center
05:04AM 37.8986 -112.9247 107° East 492 566 35,000  Level Salt Lake Center
05:05AM 37.8575 -112.7564 107° East 493 567 35,000  Level Salt Lake Center
05:06AM 37.8153 -112.5886 108° East 494 568 35,000  Level Salt Lake Center
05:07AM 37.7742 -112.4225 107° East 493 567 35,000  Level Salt Lake Center
05:08AM 37.7319 -112.2581 108° East 490 564 35,000  Level Salt Lake Center
05:09AM 37.6903 -112.0947 108° East 489 563 35,000  Level Salt Lake Center
05:10AM 37.6481 -111.9308 108° East 490 564 35,000  Level Salt Lake Center
05:11AM 37.6217 -111.8336 109° East 487 560 35,000  Level Denver Center
05:12AM 37.5800 -111.6700 108° East 491 565 35,000  Level Denver Center
05:13AM 37.5372 -111.5081 108° East 488 562 35,000  Level Denver Center
05:14AM 37.4950 -111.3433 108° East 493 567 35,000  Level Denver Center
05:15AM 37.4511 -111.1797 109° East 495 570 35,000  Level Denver Center
05:16AM 37.4072 -111.0175 109° East 491 565 35,000  Level Denver Center
05:17AM 37.3636 -110.8564 109° East 489 563 35,000  Level Denver Center
05:18AM 37.3128 -110.6644 108° East 484 557 35,000  Level Denver Center
05:19AM 37.2689 -110.5042 109° East 485 558 35,000  Level Denver Center
05:20AM 37.2267 -110.3444 108° East 482 555 35,000  Level Denver Center
05:21AM 37.1775 -110.1689 109° East 478 550 35,000  Level Denver Center
05:22AM 37.1356 -110.0169 109° East 481 554 35,000  Level Denver Center
05:23AM 37.0939 -109.8650 109° East 481 554 35,000  Level Denver Center
05:24AM 37.0442 -109.6894 109° East 479 551 35,000  Level Denver Center
05:25AM 37.0011 -109.5403 110° East 477 549 35,000  Level Denver Center
05:26AM 36.9589 -109.3867 109° East 482 555 35,000  Level Denver Center
05:27AM 36.9161 -109.2372 110° East 477 549 35,000  Level Denver Center
05:28AM 36.8681 -109.0686 110° East 462 532 35,000  Level Denver Center
05:29AM 36.8261 -108.9208 109° East 466 536 35,000  Level Denver Center
05:30AM 36.7847 -108.7753 110° East 465 535 35,000  Level Denver Center
05:31AM 36.7347 -108.6042 110° East 465 535 35,000  Level Denver Center
05:32AM 36.6908 -108.4539 110° East 474 545 35,000  Level Denver Center
05:33AM 36.6472 -108.3056 110° East 475 547 35,000  Level Denver Center
05:34AM 36.6025 -108.1581 111° Southeast 474 545 35,000  Level Denver Center
05:35AM 36.5514 -107.9864 110° East 472 543 35,000  Level Denver Center
05:36AM 36.5072 -107.8378 110° East 476 548 35,000  Level Denver Center
05:37AM 36.4633 -107.6919 110° East 473 544 35,000  Level Denver Center
05:38AM 36.4122 -107.5231 111° Southeast 467 537 35,000  Level Denver Center
05:39AM 36.3681 -107.3781 111° Southeast 468 539 35,000  Level Denver Center
05:40AM 36.3247 -107.2347 111° Southeast 466 536 35,000  Level Denver Center
05:41AM 36.2808 -107.0906 111° Southeast 466 536 35,000  Level Denver Center
05:42AM 36.2208 -106.8997 111° Southeast 467 537 35,000  Level Albuquerque Center
05:44AM 36.1756 -106.7500 110° East 469 540 35,000  Level Albuquerque Center
05:45AM 36.1278 -106.5994 111° Southeast 470 541 35,000  Level Albuquerque Center
05:46AM 36.0811 -106.4475 111° Southeast 471 542 35,000  Level Albuquerque Center
05:47AM 36.0347 -106.2981 111° Southeast 467 537 35,000  Level Albuquerque Center
05:48AM 35.9861 -106.1472 112° Southeast 469 540 35,000  Level Albuquerque Center
05:49AM 35.9386 -105.9972 111° Southeast 469 540 35,000  Level Albuquerque Center
05:55AM 35.6172 -105.0990 111° Southeast 469 540 35,000  Level FlightAware ADS-B
05:55AM 35.5832 -105.0300 121° Southeast 469 540 35,000  Level FlightAware ADS-B
05:56AM 35.5312 -104.9240 121° Southeast 469 540 35,000  Level FlightAware ADS-B
05:56AM 35.4912 -104.8430 121° Southeast 468 539 35,000  Level FlightAware ADS-B
05:57AM 35.4375 -104.7350 121° Southeast 468 539 35,000  Level FlightAware ADS-B
05:58AM 35.3999 -104.6590 121° Southeast 466 536 35,000  Level FlightAware ADS-B
05:58AM 35.3664 -104.5920 122° Southeast 464 534 35,000  Level FlightAware ADS-B
05:59AM 35.3327 -104.5240 121° Southeast 464 534 35,000  Level FlightAware ADS-B
05:59AM 35.2986 -104.4560 122° Southeast 463 533 35,000  Level FlightAware ADS-B
06:00AM 35.2531 -104.3650 121° Southeast 462 532 35,000  Level FlightAware ADS-B
06:01AM 35.2055 -104.2700 121° Southeast 460 529 35,000  Level FlightAware ADS-B
06:01AM 35.1681 -104.1960 122° Southeast 460 529 35,000  Level FlightAware ADS-B
06:02AM 35.1347 -104.1290 121° Southeast 459 528 35,000  Level FlightAware ADS-B
06:02AM 35.0992 -104.0590 122° Southeast 459 528 35,000  Level FlightAware ADS-B
06:03AM 35.0590 -103.9800 122° Southeast 460 529 35,000  Level FlightAware ADS-B
06:03AM 35.0177 -103.8980 122° Southeast 460 529 35,000  Level FlightAware ADS-B
06:04AM 34.9837 -103.8310 122° Southeast 461 531 35,000  Level FlightAware ADS-B
06:05AM 34.9491 -103.7630 122° Southeast 462 532 35,000  Level FlightAware ADS-B
06:05AM 34.9152 -103.6970 122° Southeast 463 533 35,000  Level FlightAware ADS-B
06:06AM 34.8797 -103.6270 122° Southeast 465 535 35,000  Level FlightAware ADS-B
06:06AM 34.8448 -103.5590 122° Southeast 466 536 35,000  Level FlightAware ADS-B
06:07AM 34.8104 -103.4920 122° Southeast 469 540 35,000  Level FlightAware ADS-B
06:07AM 34.7755 -103.4240 122° Southeast 469 540 35,000  Level FlightAware ADS-B
06:08AM 34.7409 -103.3570 122° Southeast 469 540 35,000  Level FlightAware ADS-B
06:08AM 34.7056 -103.2890 122° Southeast 469 540 35,000  Level FlightAware ADS-B
06:09AM 34.6711 -103.2230 122° Southeast 467 537 35,000  Level FlightAware ADS-B
06:09AM 34.6351 -103.1530 122° Southeast 466 536 35,000  Level FlightAware ADS-B
06:10AM 34.5993 -103.0840 122° Southeast 466 536 35,000  Level FlightAware ADS-B
06:10AM 34.5646 -103.0170 122° Southeast 466 536 35,000  Level FlightAware ADS-B
06:11AM 34.5298 -102.9500 122° Southeast 466 536 35,000  Level FlightAware ADS-B
06:11AM 34.4945 -102.8820 122° Southeast 465 535 35,000  Level FlightAware ADS-B
06:12AM 34.4589 -102.8140 122° Southeast 467 537 35,000  Level FlightAware ADS-B
06:12AM 34.4241 -102.7480 123° Southeast 466 536 35,000  Level FlightAware ADS-B
06:13AM 34.3890 -102.6820 123° Southeast 465 535 35,000  Level FlightAware ADS-B
06:13AM 34.3542 -102.6150 122° Southeast 464 534 35,000  Level FlightAware ADS-B
06:14AM 34.3193 -102.5490 123° Southeast 462 532 35,000  Level FlightAware ADS-B
06:14AM 34.2845 -102.4830 123° Southeast 461 531 35,000  Level FlightAware ADS-B
06:15AM 34.2493 -102.4170 123° Southeast 465 535 35,000  Level FlightAware ADS-B
06:15AM 34.2144 -102.3510 123° Southeast 469 540 35,000  Level FlightAware ADS-B
06:16AM 34.1791 -102.2840 122° Southeast 468 539 35,000  Level FlightAware ADS-B
06:16AM 34.1437 -102.2180 123° Southeast 468 539 35,000  Level FlightAware ADS-B
06:17AM 34.1082 -102.1520 123° Southeast 469 540 35,000  Level FlightAware ADS-B
06:17AM 34.0728 -102.0850 123° Southeast 470 541 35,000  Level FlightAware ADS-B
06:18AM 34.0372 -102.0180 123° Southeast 470 541 35,000  Level FlightAware ADS-B
06:18AM 34.0019 -101.9520 123° Southeast 470 541 35,000  Level FlightAware ADS-B
06:19AM 33.9661 -101.8850 123° Southeast 471 542 35,000  Level FlightAware ADS-B
06:19AM 33.9299 -101.8180 123° Southeast 474 545 35,000  Level FlightAware ADS-B
06:20AM 33.8936 -101.7510 123° Southeast 477 549 35,000  Level FlightAware ADS-B
06:20AM 33.8575 -101.6850 123° Southeast 478 550 35,000  Level FlightAware ADS-B
06:21AM 33.8210 -101.6170 123° Southeast 478 550 35,000  Level FlightAware ADS-B
06:21AM 33.7801 -101.5420 123° Southeast 479 551 35,000  Level FlightAware ADS-B
06:22AM 33.7433 -101.4740 123° Southeast 479 551 35,000  Level FlightAware ADS-B
06:22AM 33.7066 -101.4060 123° Southeast 478 550 35,000  Level FlightAware ADS-B
06:23AM 33.6701 -101.3390 123° Southeast 479 551 35,000  Level FlightAware ADS-B
06:23AM 33.6335 -101.2720 123° Southeast 479 551 35,000  Level FlightAware ADS-B
06:24AM 33.5964 -101.2040 123° Southeast 478 550 35,000  Level FlightAware ADS-B
06:24AM 33.5527 -101.1250 124° Southeast 477 549 35,000  Level FlightAware ADS-B
06:26AM 33.4178 -100.8800 123° Southeast 478 550 35,000  Level FlightAware ADS-B
06:27AM 33.3809 -100.8130 123° Southeast 478 550 35,000  Level FlightAware ADS-B
06:27AM 33.3438 -100.7460 124° Southeast 478 550 35,000  Level FlightAware ADS-B
06:28AM 33.3070 -100.6800 124° Southeast 476 548 35,000  Level FlightAware ADS-B
06:28AM 33.2693 -100.6120 124° Southeast 476 548 35,000  Level FlightAware ADS-B
06:29AM 33.2326 -100.5460 124° Southeast 477 549 35,000  Level FlightAware ADS-B
06:29AM 33.1938 -100.4760 124° Southeast 477 549 35,000  Level FlightAware ADS-B
06:30AM 33.1570 -100.4110 124° Southeast 478 550 35,000  Level FlightAware ADS-B
06:30AM 33.1164 -100.3380 124° Southeast 479 551 35,000  Level FlightAware ADS-B
06:34AM 32.8552 -99.8755 124° Southeast 481 554 35,000  Level FlightAware ADS-B
06:34AM 32.8171 -99.8083 124° Southeast 481 554 35,000  Level FlightAware ADS-B
06:35AM 32.7793 -99.7418 124° Southeast 480 552 35,000  Level FlightAware ADS-B
06:35AM 32.7404 -99.6737 124° Southeast 481 554 35,000  Level FlightAware ADS-B
06:36AM 32.7025 -99.6074 124° Southeast 480 552 35,000  Level FlightAware ADS-B
06:36AM 32.6626 -99.5378 124° Southeast 480 552 35,000  Level FlightAware ADS-B
06:37AM 32.6328 -99.4850 124° Southeast 480 552 35,000  Level Houston Center
06:37AM 32.6081 -99.4431 125° Southeast 486 559 35,000  Level Fort Worth Center
06:38AM 32.5269 -99.3033 125° Southeast 481 554 35,000  Level Fort Worth Center
06:39AM 32.4514 -99.1736 125° Southeast 481 554 35,000  Level Fort Worth Center
06:40AM 32.3761 -99.0419 124° Southeast 481 554 35,000  Level Fort Worth Center
06:46AM 31.9548 -98.3216 124° Southeast 485 558 35,000  Level FlightAware ADS-B
06:47AM 31.8837 -98.2016 125° Southeast 484 557 35,000  Level FlightAware ADS-B
06:47AM 31.8448 -98.1362 125° Southeast 484 557 35,000  Level FlightAware ADS-B
06:48AM 31.7774 -98.0233 125° Southeast 485 558 35,000  Level FlightAware ADS-B
06:49AM 31.7377 -97.9567 125° Southeast 485 558 35,000  Level FlightAware ADS-B
06:50AM 31.6477 -97.8061 125° Southeast 485 558 35,000  Level FlightAware ADS-B
06:53AM 31.4351 -97.4531 125° Southeast 489 563 35,000  Level FlightAware ADS-B
06:53AM 31.3957 -97.3880 125° Southeast 491 565 35,000  Level FlightAware ADS-B
06:54AM 31.3558 -97.3223 125° Southeast 491 565 35,000  Level FlightAware ADS-B
06:54AM 31.3156 -97.2560 125° Southeast 493 567 35,000  Level FlightAware ADS-B
06:55AM 31.2755 -97.1903 126° Southeast 493 567 35,000 -120 Level FlightAware ADS-B
06:56AM 31.1954 -97.0593 126° Southeast 492 566 34,900 -1,440 Descending FlightAware ADS-B
06:57AM 31.1155 -96.9284 125° Southeast 497 572 32,100 -2,640 Descending FlightAware ADS-B
06:58AM 31.0345 -96.7964 126° Southeast 482 555 29,600 -2,460 Descending FlightAware ADS-B
06:59AM 30.9588 -96.6758 126° Southeast 445 512 27,100 -2,580 Descending FlightAware ADS-B
06:59AM 30.9232 -96.6176 125° Southeast 436 502 25,800 -2,700 Descending FlightAware ADS-B
07:00AM 30.8884 -96.5608 126° Southeast 422 486 24,400 -2,640 Descending FlightAware ADS-B
07:01AM 30.8224 -96.4533 126° Southeast 398 458 21,800 -2,460 Descending FlightAware ADS-B
07:02AM 30.7591 -96.3508 126° Southeast 376 433 19,500 -2,220 Descending FlightAware ADS-B
07:03AM 30.6990 -96.2540 126° Southeast 365 420 17,400 -2,100 Descending FlightAware ADS-B
07:04AM 30.6090 -96.1113 126° Southeast 352 405 14,200 -2,100 Descending FlightAware ADS-B
07:06AM 30.5239 -95.9754 126° Southeast 337 388 11,100 -1,620 Descending FlightAware ADS-B
07:07AM 30.4634 -95.8795 126° Southeast 294 338 10,000 -960 Descending FlightAware ADS-B
07:07AM 30.4599 -95.8744 129° Southeast 292 336 10,000 -600 Level FlightAware ADS-B
07:07AM 30.4528 -95.8667 139° Southeast 285 328 9,900 -360 Descending FlightAware ADS-B
07:07AM 30.4416 -95.8592 156° South 279 321 9,900 -720 Level FlightAware ADS-B
07:07AM 30.4330 -95.8563 166° South 278 320 9,700 -1,740 Descending FlightAware ADS-B
07:07AM 30.4241 -95.8552 175° South 283 326 9,500 -1,740 Descending FlightAware ADS-B
07:08AM 30.4058 -95.8544 178° South 286 329 9,100 -1,020 Descending FlightAware ADS-B
07:09AM 30.3084 -95.8508 177° South 276 318 8,000 -780 Descending FlightAware ADS-B
07:09AM 30.2893 -95.8498 177° South 275 316 8,000  Level FlightAware ADS-B
07:10AM 30.1901 -95.8446 177° South 278 320 8,000  Level FlightAware ADS-B
07:11AM 30.1740 -95.8437 177° South 278 320 8,000 -1,200 Level FlightAware ADS-B
07:12AM 30.0966 -95.8388 177° South 274 315 6,600 -1,440 Descending FlightAware ADS-B
07:12AM 30.0758 -95.8377 177° South 273 314 6,200 -1,320 Descending FlightAware ADS-B
07:12AM 30.0561 -95.8366 177° South 272 313 5,900 -1,380 Descending FlightAware ADS-B
07:12AM 30.0412 -95.8356 177° South 274 315 5,600 -1,800 Descending FlightAware ADS-B
07:12AM 30.0349 -95.8344 171° South 273 314 5,400 -1,800 Descending FlightAware ADS-B
07:13AM 30.0300 -95.8326 162° South 272 313 5,300 -1,500 Descending FlightAware ADS-B
07:13AM 30.0249 -95.8300 156° South 270 311 5,200 -1,500 Descending FlightAware ADS-B
07:13AM 30.0204 -95.8268 148° Southeast 268 308 5,100 -1,740 Descending FlightAware ADS-B
07:13AM 30.0174 -95.8240 141° Southeast 266 306 5,000 -600 Descending FlightAware ADS-B
07:13AM 30.0120 -95.8172 133° Southeast 264 304 5,000 -600 Level FlightAware ADS-B
07:13AM 30.0096 -95.8128 122° Southeast 263 303 4,900 -600 Descending FlightAware ADS-B
07:13AM 30.0057 -95.8043 118° Southeast 262 302 4,900 240 Level FlightAware ADS-B
07:13AM 29.9978 -95.7846 115° Southeast 260 299 5,000 300 Climbing FlightAware ADS-B
07:13AM 29.9962 -95.7794 110° East 258 297 5,000 -600 Level FlightAware ADS-B
07:13AM 29.9943 -95.7714 105° East 258 297 4,900 -960 Descending FlightAware ADS-B
07:14AM 29.9922 -95.7541 98° East 258 297 4,700 -1,560 Descending FlightAware ADS-B
07:14AM 29.9917 -95.7338 92° East 263 303 4,200 -1,500 Descending FlightAware ADS-B
07:14AM 29.9920 -95.7155 89° East 264 304 4,000 -420 Descending FlightAware ADS-B
07:14AM 29.9926 -95.6946 88° East 262 302 4,000  Level FlightAware ADS-B
07:15AM 29.9929 -95.6734 89° East 260 299 4,000  Level FlightAware ADS-B
07:15AM 29.9930 -95.6565 90° East 259 298 4,000 -240 Level FlightAware ADS-B
07:15AM 29.9929 -95.6362 90° East 248 285 3,900 -240 Descending FlightAware ADS-B
07:15AM 29.9929 -95.6171 90° East 233 268 3,900 -300 Level FlightAware ADS-B
07:16AM 29.9930 -95.5841 90° East 219 252 3,700 -660 Descending FlightAware ADS-B
07:16AM 29.9930 -95.5728 90° East 216 249 3,500 -1,200 Descending FlightAware ADS-B
07:16AM 29.9931 -95.5552 90° East 213 245 3,200 -1,020 Descending FlightAware ADS-B
07:16AM 29.9930 -95.5377 90° East 206 237 3,000 -960 Descending FlightAware ADS-B
07:17AM 29.9931 -95.5186 90° East 204 235 2,700 -1,140 Descending FlightAware ADS-B
07:17AM 29.9932 -95.5017 90° East 202 232 2,400 -1,020 Descending FlightAware ADS-B
07:17AM 29.9932 -95.4856 90° East 199 229 2,200 -1,020 Descending FlightAware ADS-B
07:18AM 29.9933 -95.4500 90° East 189 217 1,600 -1,020 Descending FlightAware ADS-B
07:18AM 29.9933 -95.4319 90° East 173 199 1,300 -840 Descending FlightAware ADS-B
07:18AM 29.9934 -95.4159 90° East 165 190 1,100 -840 Descending FlightAware ADS-B
07:19AM 29.9934 -95.4056 90° East 163 188 900 -900 Descending FlightAware ADS-B
07:19AM 29.9933 -95.3915 90° East 163 188 700 -960 Descending FlightAware ADS-B
07:19AM 29.9933 -95.3775 90° East 161 185 400 -960 Descending FlightAware ADS-B
07:19AM 29.9934 -95.3645 89° East 160 184 200 -720 Descending FlightAware ADS-B
07:20AM 29.9934 -95.3559 90° East 159 183 100 -600 Descending FlightAware ADS-B